METAR 
LUKK 112230Z 14005KT 100V170 9999 OVC010 20/18 Q1008 R08/D TEMPO 3000 BR BKN004 =
TAF 
TAF LUKK 111720Z 1118/1218 14009KT 9999 SCT040 BECMG 1121/1123 5000 BR BKN010 TEMPO 1123/1206 1200 BKN002 PROB30 TEMPO 1123/1205 0300 FG VV/// BECMG 1206/1208 9999 NSW SCT035 TEMPO 1209/1216 14018G30KT 4000 TSRA BKN020 SCT035CB =
SR / SS: 03:43 / 16:25 UTC (KIV 2017-09-12)

source: ADDS